createdAt,value
2022-12-03T00:01:22.959Z,6.00
2022-12-03T00:03:50.767Z,6.10
2022-12-03T00:06:19.046Z,6.20
2022-12-03T00:08:46.696Z,5.80
2022-12-03T00:11:14.579Z,6.30
2022-12-03T00:13:42.284Z,5.70
2022-12-03T00:16:10.045Z,4.90
2022-12-03T00:18:37.933Z,5.80
2022-12-03T00:21:06.114Z,5.80
2022-12-03T00:23:37.162Z,5.80
2022-12-03T00:26:09.963Z,5.50
2022-12-03T00:28:37.717Z,5.60
2022-12-03T00:31:05.612Z,5.40
2022-12-03T00:33:33.410Z,5.50
2022-12-03T00:36:01.217Z,5.50
2022-12-03T00:38:28.968Z,5.30
2022-12-03T00:40:56.627Z,5.70
2022-12-03T00:43:24.333Z,5.70
2022-12-03T00:45:52.545Z,5.60
2022-12-03T00:48:20.205Z,5.80
2022-12-03T00:50:48.038Z,5.70
2022-12-03T00:53:15.763Z,5.70
2022-12-03T00:55:43.443Z,6.10
2022-12-03T00:58:11.127Z,5.80
2022-12-03T01:00:38.740Z,5.30
2022-12-03T01:03:06.443Z,4.90
2022-12-03T01:05:34.087Z,5.10
2022-12-03T01:08:01.880Z,5.50
2022-12-03T01:10:29.796Z,5.20
2022-12-03T01:12:57.756Z,5.50
2022-12-03T01:15:25.441Z,5.60
2022-12-03T01:17:54.267Z,5.30
2022-12-03T01:20:22.178Z,5.30
2022-12-03T01:22:49.854Z,4.90
2022-12-03T01:25:18.066Z,5.50
2022-12-03T01:27:45.716Z,5.70
2022-12-03T01:30:14.233Z,5.70
2022-12-03T01:32:41.982Z,6.10
2022-12-03T01:35:09.825Z,6.00
2022-12-03T01:37:37.554Z,5.90
2022-12-03T01:40:07.829Z,5.90
2022-12-03T01:42:39.597Z,5.30
2022-12-03T01:45:21.687Z,5.20
2022-12-03T01:47:49.970Z,5.50
2022-12-03T01:50:23.055Z,5.30
2022-12-03T01:53:00.360Z,4.80
2022-12-03T01:55:28.528Z,5.40
2022-12-03T01:58:02.185Z,5.20
2022-12-03T02:00:30.555Z,5.10
2022-12-03T02:03:01.644Z,5.50
2022-12-03T02:05:32.174Z,5.60
2022-12-03T02:08:00.593Z,5.50
2022-12-03T02:10:34.257Z,5.50
2022-12-03T02:13:10.186Z,5.50
2022-12-03T02:15:39.624Z,5.70
2022-12-03T02:18:08.726Z,5.50
2022-12-03T02:20:53.290Z,5.40
2022-12-03T02:23:35.336Z,5.40
2022-12-03T02:26:03.285Z,5.00
2022-12-03T02:28:31.204Z,5.00
2022-12-03T02:30:58.936Z,5.10
2022-12-03T02:33:26.655Z,5.40
2022-12-03T02:35:57.947Z,5.10
2022-12-03T02:41:01.209Z,5.20
2022-12-03T02:43:29.279Z,5.20
2022-12-03T02:46:00.510Z,5.60
2022-12-03T02:48:35.981Z,5.50
2022-12-03T02:51:09.950Z,5.30
2022-12-03T02:53:44.682Z,5.90
2022-12-03T02:56:16.263Z,5.60
2022-12-03T02:58:46.841Z,5.90
2022-12-03T03:01:17.996Z,6.10
2022-12-03T03:03:48.719Z,5.90
2022-12-03T03:06:19.203Z,5.40
2022-12-03T03:08:47.062Z,5.40
2022-12-03T03:11:14.947Z,5.40
2022-12-03T03:13:43.026Z,5.40
2022-12-03T03:16:10.952Z,5.50
2022-12-03T03:18:39.189Z,5.40
2022-12-03T03:21:07.316Z,5.40
2022-12-03T03:23:34.998Z,5.30
2022-12-03T03:26:07.090Z,5.50
2022-12-03T03:28:39.435Z,5.20
2022-12-03T03:31:09.279Z,5.70
2022-12-03T03:33:41.522Z,5.60
2022-12-03T03:36:09.929Z,5.70
2022-12-03T03:38:38.830Z,5.90
2022-12-03T03:41:09.276Z,5.40
2022-12-03T03:43:38.850Z,5.50
2022-12-03T03:46:07.720Z,5.30
2022-12-03T03:48:36.215Z,5.20
2022-12-03T03:51:08.826Z,5.20
2022-12-03T03:53:40.675Z,5.40
2022-12-03T03:56:09.677Z,5.30
2022-12-03T03:58:38.059Z,5.10
2022-12-03T04:01:06.284Z,5.10
2022-12-03T04:03:34.980Z,5.20
2022-12-03T04:06:02.665Z,5.40
2022-12-03T04:08:30.823Z,5.60
2022-12-03T04:11:15.185Z,5.40
2022-12-03T04:13:42.816Z,5.40
2022-12-03T04:16:11.271Z,5.40
2022-12-03T04:18:44.970Z,5.50
2022-12-03T04:21:37.211Z,5.40
2022-12-03T04:24:06.722Z,5.60
2022-12-03T04:26:51.033Z,5.10
2022-12-03T04:29:20.451Z,5.50
2022-12-03T04:32:04.093Z,5.70
2022-12-03T04:34:48.028Z,5.20
2022-12-03T04:37:15.703Z,5.70
2022-12-03T04:39:43.767Z,5.20
2022-12-03T04:42:11.596Z,5.30
2022-12-03T04:44:39.404Z,5.40
2022-12-03T04:47:11.877Z,5.50
2022-12-03T04:49:42.614Z,5.90
2022-12-03T04:52:12.637Z,5.60
2022-12-03T04:54:40.778Z,5.90
2022-12-03T04:57:09.628Z,5.60
2022-12-03T04:59:38.506Z,5.80
2022-12-03T05:02:07.025Z,5.70
2022-12-03T05:04:35.114Z,5.30
2022-12-03T05:07:03.217Z,5.60
2022-12-03T05:09:30.960Z,5.50
2022-12-03T05:11:58.633Z,5.20
2022-12-03T05:14:26.316Z,5.50
2022-12-03T05:16:54.095Z,5.40
2022-12-03T05:19:41.758Z,5.50
2022-12-03T05:22:09.508Z,5.50
2022-12-03T05:24:37.235Z,5.40
2022-12-03T05:27:04.842Z,4.90
2022-12-03T05:29:32.624Z,5.70
2022-12-03T05:32:00.301Z,5.40
2022-12-03T05:34:28.003Z,5.60
2022-12-03T05:36:55.699Z,5.60
2022-12-03T05:39:23.448Z,5.40
2022-12-03T05:42:07.148Z,5.70
2022-12-03T05:44:34.744Z,5.80
2022-12-03T05:47:02.462Z,5.60
2022-12-03T05:49:30.109Z,5.50
2022-12-03T05:51:58.838Z,5.40
2022-12-03T05:54:26.793Z,5.50
2022-12-03T05:56:54.435Z,5.40
2022-12-03T05:59:22.241Z,5.50
2022-12-03T06:01:49.967Z,5.50
2022-12-03T06:04:17.628Z,5.50
2022-12-03T06:06:45.285Z,5.40
2022-12-03T06:09:13.490Z,5.30
2022-12-03T06:11:41.278Z,5.40
2022-12-03T06:14:09.173Z,5.70
2022-12-03T06:16:36.829Z,5.60
2022-12-03T06:19:04.624Z,5.80
2022-12-03T06:21:32.281Z,6.10
2022-12-03T06:24:01.275Z,5.90
2022-12-03T06:26:30.237Z,5.60
2022-12-03T06:28:58.200Z,5.50
2022-12-03T06:31:26.004Z,5.70
2022-12-03T06:33:53.884Z,5.60
2022-12-03T06:36:23.384Z,5.40
2022-12-03T06:38:51.402Z,5.70
2022-12-03T06:41:19.405Z,5.40
2022-12-03T06:43:47.035Z,5.20
2022-12-03T06:46:14.678Z,5.40
2022-12-03T06:48:42.548Z,5.30
2022-12-03T06:51:10.316Z,5.70
2022-12-03T06:53:38.209Z,5.70
2022-12-03T06:56:06.086Z,5.20
2022-12-03T06:58:33.807Z,5.40
2022-12-03T07:01:01.451Z,5.30
2022-12-03T07:03:29.219Z,5.50
2022-12-03T07:05:57.023Z,5.60
2022-12-03T07:08:24.874Z,5.40
2022-12-03T07:10:52.490Z,5.90
2022-12-03T07:13:20.493Z,5.30
2022-12-03T07:15:48.302Z,5.50
2022-12-03T07:18:16.033Z,5.60
2022-12-03T07:20:43.658Z,5.90
2022-12-03T07:23:11.447Z,5.50
2022-12-03T07:25:39.095Z,5.50
2022-12-03T07:28:06.823Z,5.30
2022-12-03T07:30:34.895Z,5.30
2022-12-03T07:33:02.613Z,5.70
2022-12-03T07:35:30.310Z,5.40
2022-12-03T07:37:58.047Z,5.20
2022-12-03T07:40:25.686Z,5.60
2022-12-03T07:42:53.359Z,5.60
2022-12-03T07:45:21.018Z,6.00
2022-12-03T07:47:48.734Z,6.30
2022-12-03T07:50:16.901Z,6.00
2022-12-03T07:52:44.565Z,6.50
2022-12-03T07:55:13.352Z,5.60
2022-12-03T07:57:40.959Z,6.00
2022-12-03T08:00:10.208Z,5.40
2022-12-03T08:02:37.976Z,5.30
2022-12-03T08:05:06.964Z,5.20
2022-12-03T08:07:35.352Z,5.20
2022-12-03T08:10:06.077Z,5.30
2022-12-03T08:12:40.546Z,4.60
2022-12-03T08:15:13.169Z,5.20
2022-12-03T08:17:42.425Z,5.50
2022-12-03T08:20:21.367Z,5.30
2022-12-03T08:22:51.659Z,5.00
2022-12-03T08:25:31.565Z,5.30
2022-12-03T08:28:19.796Z,5.00
2022-12-03T08:31:19.688Z,5.60
2022-12-03T08:33:59.423Z,5.60
2022-12-03T08:36:32.908Z,5.10
2022-12-03T08:39:14.616Z,4.90
2022-12-03T08:41:58.554Z,5.30
2022-12-03T08:44:32.407Z,5.00
2022-12-03T08:49:29.699Z,4.70
2022-12-03T08:52:00.442Z,7.40
2022-12-03T08:54:28.197Z,5.40
2022-12-03T08:56:56.072Z,6.30
2022-12-03T08:59:31.058Z,6.50
2022-12-03T09:01:59.811Z,5.70
2022-12-03T09:04:44.354Z,5.60
2022-12-03T09:07:11.975Z,4.90
2022-12-03T09:09:40.215Z,5.50
2022-12-03T09:12:08.023Z,5.00
2022-12-03T09:14:35.701Z,6.50
2022-12-03T09:17:03.761Z,7.00
2022-12-03T09:19:31.834Z,6.70
2022-12-03T09:21:59.480Z,4.90
2022-12-03T09:24:27.230Z,5.40
2022-12-03T09:26:55.166Z,5.20
2022-12-03T09:29:23.330Z,4.80
2022-12-03T09:31:51.192Z,5.70
2022-12-03T09:34:18.964Z,5.30
2022-12-03T09:36:46.640Z,5.00
2022-12-03T09:39:14.331Z,4.90
2022-12-03T09:41:43.592Z,5.30
2022-12-03T09:44:17.669Z,4.90
2022-12-03T09:46:47.932Z,5.20
2022-12-03T09:49:17.896Z,6.30
2022-12-03T09:51:46.566Z,5.70
2022-12-03T09:54:23.887Z,4.90
2022-12-03T09:56:53.379Z,5.00
2022-12-03T09:59:22.766Z,5.60
2022-12-03T10:01:51.804Z,4.90
2022-12-03T10:04:20.641Z,5.00
2022-12-03T10:06:48.493Z,4.80
2022-12-03T10:09:28.102Z,5.20
2022-12-03T10:11:58.889Z,5.40
2022-12-03T10:14:27.623Z,4.90
2022-12-03T10:16:56.337Z,4.40
2022-12-03T10:19:35.802Z,5.40
2022-12-03T10:22:03.771Z,5.40
2022-12-03T10:24:33.592Z,4.70
2022-12-03T10:27:21.007Z,4.80
2022-12-03T10:30:13.915Z,4.80
2022-12-03T10:32:47.656Z,5.00
2022-12-03T10:35:21.911Z,5.40
2022-12-03T10:37:58.160Z,5.50
2022-12-03T10:40:34.495Z,5.30
2022-12-03T10:43:18.113Z,4.90
2022-12-03T10:45:48.146Z,5.10
2022-12-03T10:48:17.582Z,5.00
2022-12-03T10:51:12.992Z,5.00
2022-12-03T10:53:41.797Z,4.90
2022-12-03T10:56:23.781Z,5.10
2022-12-03T10:58:52.459Z,4.90
2022-12-03T11:01:23.520Z,5.40
2022-12-03T11:03:53.127Z,5.10
2022-12-03T11:06:23.049Z,5.40
2022-12-03T11:08:58.582Z,4.70
2022-12-03T11:11:30.040Z,4.90
2022-12-03T11:14:00.346Z,4.90
2022-12-03T11:16:44.054Z,4.80
2022-12-03T11:19:42.796Z,4.70
2022-12-03T11:22:10.669Z,4.70
2022-12-03T11:24:40.163Z,4.90
2022-12-03T11:27:17.866Z,4.80
2022-12-03T11:29:47.164Z,4.80
2022-12-03T11:32:46.770Z,4.70
2022-12-03T11:35:31.327Z,4.80
2022-12-03T11:38:34.941Z,4.90
2022-12-03T11:41:24.549Z,4.60
2022-12-03T11:43:52.243Z,4.60
2022-12-03T11:46:23.026Z,4.30
2022-12-03T11:48:54.246Z,4.40
2022-12-03T11:51:24.994Z,4.40
2022-12-03T11:53:56.239Z,4.50
2022-12-03T11:56:26.866Z,5.10
2022-12-03T11:59:03.158Z,4.40
2022-12-03T12:01:39.114Z,5.10
2022-12-03T12:04:26.037Z,5.00
2022-12-03T12:06:53.857Z,4.90
2022-12-03T12:09:53.046Z,4.40
2022-12-03T12:12:29.160Z,4.80
2022-12-03T12:14:58.567Z,4.80
2022-12-03T12:17:36.851Z,4.70
2022-12-03T12:20:20.544Z,4.60
2022-12-03T12:22:48.243Z,5.00
2022-12-03T12:25:34.858Z,5.30
2022-12-03T12:28:02.874Z,4.60
2022-12-03T12:30:30.542Z,5.40
2022-12-03T12:33:18.355Z,5.10
2022-12-03T12:35:46.224Z,4.60
2022-12-03T12:38:19.990Z,4.90
2022-12-03T12:43:29.381Z,5.20
2022-12-03T12:46:18.676Z,5.20
2022-12-03T12:48:49.426Z,4.60
2022-12-03T12:51:20.508Z,4.70
2022-12-03T12:53:49.830Z,4.30
2022-12-03T12:56:26.984Z,4.60
2022-12-03T12:58:56.818Z,4.60
2022-12-03T13:01:30.456Z,4.30
2022-12-03T13:03:59.442Z,4.40
2022-12-03T13:06:31.885Z,4.90
2022-12-03T13:09:01.239Z,4.80
2022-12-03T13:11:42.229Z,4.80
2022-12-03T13:14:16.115Z,7.40
2022-12-03T13:16:44.727Z,6.30
2022-12-03T13:19:29.883Z,6.20
2022-12-03T13:22:01.837Z,5.80
2022-12-03T13:24:36.678Z,5.00
2022-12-03T13:27:20.411Z,5.60
2022-12-03T13:29:55.786Z,4.80
2022-12-03T13:32:31.804Z,5.40
2022-12-03T13:35:07.287Z,5.50
2022-12-03T13:37:35.210Z,5.50
2022-12-03T13:40:25.585Z,4.90
2022-12-03T13:42:54.245Z,4.80
2022-12-03T13:45:24.593Z,4.60
2022-12-03T13:47:58.531Z,5.10
2022-12-03T13:53:24.487Z,5.00
2022-12-03T13:55:57.584Z,4.50
2022-12-03T13:58:25.810Z,4.70
2022-12-03T14:00:53.536Z,4.70
2022-12-03T14:03:23.114Z,4.70
2022-12-03T14:05:50.741Z,4.70
2022-12-03T14:08:18.507Z,4.80
2022-12-03T14:10:46.260Z,4.70
2022-12-03T14:13:13.923Z,5.00
2022-12-03T14:15:41.635Z,5.20
2022-12-03T14:18:10.844Z,5.40
2022-12-03T14:20:38.711Z,5.60
2022-12-03T14:23:06.642Z,4.50
2022-12-03T14:25:34.526Z,4.60
2022-12-03T14:28:02.223Z,4.50
2022-12-03T14:30:30.855Z,4.30
2022-12-03T14:32:58.522Z,4.80
2022-12-03T14:35:26.196Z,5.00
2022-12-03T14:37:54.022Z,4.80
2022-12-03T14:40:22.340Z,4.30
2022-12-03T14:42:50.342Z,4.60
2022-12-03T14:45:18.055Z,4.80
2022-12-03T14:47:45.744Z,5.30
2022-12-03T14:50:14.378Z,4.60
2022-12-03T14:52:43.278Z,4.90
2022-12-03T14:55:11.040Z,4.90
2022-12-03T14:57:38.921Z,5.10
2022-12-03T15:00:07.625Z,4.50
2022-12-03T15:02:35.467Z,4.60
2022-12-03T15:05:04.032Z,4.40
2022-12-03T15:07:31.996Z,4.70
2022-12-03T15:10:00.092Z,4.70
2022-12-03T15:12:27.765Z,4.60
2022-12-03T15:14:55.420Z,4.80
2022-12-03T15:17:30.930Z,4.40
2022-12-03T15:19:59.578Z,4.70
2022-12-03T15:22:27.282Z,4.70
2022-12-03T15:24:54.938Z,4.80
2022-12-03T15:27:23.335Z,4.50
2022-12-03T15:29:51.460Z,4.50
2022-12-03T15:32:19.425Z,4.20
2022-12-03T15:34:47.136Z,4.70
2022-12-03T15:37:14.849Z,4.70
2022-12-03T15:39:52.352Z,4.20
2022-12-03T15:42:20.251Z,4.60
2022-12-03T15:44:47.864Z,5.50
2022-12-03T15:47:15.577Z,5.00
2022-12-03T15:49:43.246Z,4.90
2022-12-03T15:52:10.870Z,4.50
2022-12-03T15:54:38.513Z,5.00
2022-12-03T15:57:06.213Z,4.90
2022-12-03T15:59:33.857Z,5.10
2022-12-03T16:02:01.598Z,5.00
2022-12-03T16:04:29.490Z,4.90
2022-12-03T16:06:57.164Z,5.00
2022-12-03T16:09:27.449Z,4.80
2022-12-03T16:11:55.530Z,5.80
2022-12-03T16:14:23.238Z,6.70
2022-12-03T16:16:50.936Z,5.50
2022-12-03T16:19:18.713Z,5.50
2022-12-03T16:21:46.669Z,5.50
2022-12-03T16:24:14.385Z,5.50
2022-12-03T16:26:42.040Z,5.50
2022-12-03T16:29:09.740Z,5.40
2022-12-03T16:31:37.397Z,4.90
2022-12-03T16:34:05.233Z,5.10
2022-12-03T16:36:32.919Z,4.60
2022-12-03T16:39:00.710Z,4.80
2022-12-03T16:41:28.358Z,4.90
2022-12-03T16:43:56.165Z,5.60
2022-12-03T16:46:26.912Z,4.90
2022-12-03T16:48:57.810Z,4.70
2022-12-03T16:51:27.138Z,4.90
2022-12-03T16:53:54.995Z,5.70
2022-12-03T16:56:22.672Z,5.70
2022-12-03T16:58:50.377Z,4.90
2022-12-03T17:01:18.330Z,4.50
2022-12-03T17:03:46.130Z,4.50
2022-12-03T17:06:13.869Z,4.70
2022-12-03T17:08:47.319Z,5.70
2022-12-03T17:11:17.812Z,5.30
2022-12-03T17:13:46.459Z,4.80
2022-12-03T17:16:14.570Z,4.80
2022-12-03T17:18:42.873Z,6.20
2022-12-03T17:21:10.558Z,6.20
2022-12-03T17:23:38.301Z,6.50
2022-12-03T17:26:06.046Z,6.20
2022-12-03T17:28:33.812Z,6.20
2022-12-03T17:31:01.529Z,5.80
2022-12-03T17:33:29.340Z,7.60
2022-12-03T17:35:57.019Z,6.70
2022-12-03T17:38:24.872Z,6.80
2022-12-03T17:40:52.507Z,5.70
2022-12-03T17:43:20.283Z,5.40
2022-12-03T17:45:48.064Z,6.00
2022-12-03T17:48:15.811Z,6.20
2022-12-03T17:50:43.539Z,6.70
2022-12-03T17:53:11.519Z,6.10
2022-12-03T17:55:44.634Z,5.10
2022-12-03T18:00:40.765Z,5.30
2022-12-03T18:03:08.576Z,5.10
2022-12-03T18:05:36.435Z,5.90
2022-12-03T18:08:04.507Z,5.10
2022-12-03T18:10:32.453Z,4.90
2022-12-03T18:13:02.221Z,5.00
2022-12-03T18:15:31.180Z,4.60
2022-12-03T18:17:58.924Z,4.40
2022-12-03T18:20:26.677Z,4.80
2022-12-03T18:22:54.579Z,4.80
2022-12-03T18:25:22.275Z,4.70
2022-12-03T18:27:50.027Z,4.70
2022-12-03T18:30:18.124Z,4.80
2022-12-03T18:32:45.929Z,4.70
2022-12-03T18:35:13.792Z,4.60
2022-12-03T18:37:41.534Z,4.60
2022-12-03T18:40:17.420Z,4.80
2022-12-03T18:42:45.125Z,5.20
2022-12-03T18:45:14.762Z,4.70
2022-12-03T18:47:42.920Z,4.70
2022-12-03T18:50:12.198Z,5.10
2022-12-03T18:52:40.273Z,4.80
2022-12-03T18:55:13.976Z,4.90
2022-12-03T18:57:41.613Z,4.80
2022-12-03T19:00:13.479Z,4.40
2022-12-03T19:05:30.947Z,4.70
2022-12-03T19:07:58.924Z,4.60
2022-12-03T19:10:27.335Z,4.80
2022-12-03T19:12:55.187Z,4.70
2022-12-03T19:15:23.983Z,4.60
2022-12-03T19:17:51.765Z,4.60
2022-12-03T19:20:19.674Z,4.60
2022-12-03T19:22:47.330Z,4.90
2022-12-03T19:25:15.019Z,4.60
2022-12-03T19:27:43.378Z,4.60
2022-12-03T19:30:11.880Z,4.70
2022-12-03T19:32:39.521Z,4.80
2022-12-03T19:35:10.958Z,4.50
2022-12-03T19:37:38.597Z,4.90
2022-12-03T19:40:07.404Z,4.80
2022-12-03T19:42:35.204Z,5.00
2022-12-03T19:45:03.483Z,4.70
2022-12-03T19:47:32.926Z,4.70
2022-12-03T19:50:00.647Z,4.80
2022-12-03T19:52:28.429Z,5.10
2022-12-03T19:54:56.104Z,7.40
2022-12-03T19:57:23.894Z,5.40
2022-12-03T19:59:52.015Z,5.30
2022-12-03T20:02:20.027Z,5.60
2022-12-03T20:04:47.838Z,6.00
2022-12-03T20:07:15.509Z,5.40
2022-12-03T20:09:43.231Z,5.30
2022-12-03T20:12:10.959Z,5.40
2022-12-03T20:14:38.614Z,5.10
2022-12-03T20:17:06.361Z,5.30
2022-12-03T20:19:34.083Z,5.10
2022-12-03T20:22:03.046Z,5.00
2022-12-03T20:24:30.894Z,5.00
2022-12-03T20:26:58.550Z,5.00
2022-12-03T20:29:26.223Z,4.80
2022-12-03T20:31:53.896Z,4.60
2022-12-03T20:34:21.634Z,4.90
2022-12-03T20:36:49.313Z,5.70
2022-12-03T20:39:16.949Z,5.30
2022-12-03T20:41:44.631Z,5.20
2022-12-03T20:44:13.861Z,5.70
2022-12-03T20:46:41.768Z,5.20
2022-12-03T20:49:09.583Z,5.40
2022-12-03T20:51:37.296Z,5.00
2022-12-03T20:54:05.166Z,4.90
2022-12-03T20:56:35.997Z,5.10
2022-12-03T20:59:06.395Z,5.00
2022-12-03T21:01:36.037Z,4.90
2022-12-03T21:04:04.965Z,5.20
2022-12-03T21:06:35.777Z,5.30
2022-12-03T21:09:07.734Z,5.00
2022-12-03T21:11:39.045Z,5.30
2022-12-03T21:14:07.608Z,5.30
2022-12-03T21:17:06.794Z,4.90
2022-12-03T21:19:27.186Z,5.20
2022-12-03T21:21:55.003Z,5.10
2022-12-03T21:24:22.948Z,4.80
2022-12-03T21:26:50.658Z,5.20
2022-12-03T21:29:18.416Z,5.10
2022-12-03T21:31:46.619Z,4.90
2022-12-03T21:34:14.553Z,5.20
2022-12-03T21:36:42.239Z,5.10
2022-12-03T21:39:10.396Z,4.80
2022-12-03T21:41:38.106Z,5.00
2022-12-03T21:44:05.809Z,5.50
2022-12-03T21:47:09.672Z,5.40
2022-12-03T21:49:22.643Z,5.70
2022-12-03T21:51:50.415Z,5.40
2022-12-03T21:54:18.397Z,5.90
2022-12-03T21:56:46.163Z,5.20
2022-12-03T21:59:14.534Z,5.20
2022-12-03T22:01:46.983Z,5.80
2022-12-03T22:04:15.166Z,5.40
2022-12-03T22:06:43.231Z,5.30
2022-12-03T22:09:10.931Z,5.00
2022-12-03T22:11:38.782Z,4.80
2022-12-03T22:14:08.187Z,5.20
2022-12-03T22:16:36.086Z,4.70
2022-12-03T22:19:03.913Z,5.30
2022-12-03T22:21:31.637Z,5.30
2022-12-03T22:23:59.763Z,5.10
2022-12-03T22:26:27.493Z,5.30
2022-12-03T22:28:55.286Z,5.50
2022-12-03T22:31:22.962Z,5.00
2022-12-03T22:33:50.866Z,5.10
2022-12-03T22:36:21.384Z,4.90
2022-12-03T22:38:51.015Z,5.00
2022-12-03T22:41:19.865Z,4.90
2022-12-03T22:43:48.610Z,5.20
2022-12-03T22:46:17.310Z,5.50
2022-12-03T22:48:47.057Z,5.30
2022-12-03T22:51:20.493Z,5.10
2022-12-03T22:53:53.721Z,5.10
2022-12-03T22:56:22.520Z,5.00
2022-12-03T22:58:50.642Z,4.80
2022-12-03T23:01:24.480Z,5.10
2022-12-03T23:03:52.755Z,5.60
2022-12-03T23:06:21.847Z,5.60
2022-12-03T23:08:50.057Z,5.30
2022-12-03T23:11:18.512Z,5.20
2022-12-03T23:13:46.432Z,5.10
2022-12-03T23:16:17.005Z,5.30
2022-12-03T23:18:44.961Z,5.40
2022-12-03T23:21:29.486Z,5.20
2022-12-03T23:24:04.472Z,5.20
2022-12-03T23:29:06.022Z,5.60
2022-12-03T23:31:34.931Z,5.20
2022-12-03T23:34:02.935Z,5.30
2022-12-03T23:36:32.816Z,5.10
2022-12-03T23:39:00.729Z,5.20
2022-12-03T23:41:28.463Z,5.10
2022-12-03T23:43:56.517Z,5.30
2022-12-03T23:46:27.187Z,5.10
2022-12-03T23:48:55.217Z,5.20
2022-12-03T23:51:24.848Z,5.10
2022-12-03T23:53:53.954Z,5.20
2022-12-03T23:56:24.682Z,5.20
2022-12-03T23:58:52.391Z,5.10
